sensor_id;sensor_type;location;lat;lon;timestamp;P1;durP1;ratioP1;P2;durP2;ratioP2
12124;SDS011;6126;57.908;16.490;2022-12-18T00:01:32;5.95;;;4.05;;
12124;SDS011;6126;57.908;16.490;2022-12-18T00:04:00;6.50;;;3.80;;
12124;SDS011;6126;57.908;16.490;2022-12-18T00:06:29;6.88;;;3.40;;
12124;SDS011;6126;57.908;16.490;2022-12-18T00:08:56;3.83;;;3.33;;
12124;SDS011;6126;57.908;16.490;2022-12-18T00:11:24;5.70;;;3.50;;
12124;SDS011;6126;57.908;16.490;2022-12-18T00:13:53;5.13;;;3.10;;
12124;SDS011;6126;57.908;16.490;2022-12-18T00:16:22;3.70;;;3.30;;
12124;SDS011;6126;57.908;16.490;2022-12-18T00:18:50;6.43;;;3.60;;
12124;SDS011;6126;57.908;16.490;2022-12-18T00:21:20;4.80;;;3.50;;
12124;SDS011;6126;57.908;16.490;2022-12-18T00:23:47;8.18;;;4.43;;
12124;SDS011;6126;57.908;16.490;2022-12-18T00:26:33;6.03;;;3.35;;
12124;SDS011;6126;57.908;16.490;2022-12-18T00:29:03;7.07;;;3.63;;
12124;SDS011;6126;57.908;16.490;2022-12-18T00:31:38;6.13;;;3.58;;
12124;SDS011;6126;57.908;16.490;2022-12-18T00:34:05;8.30;;;3.80;;
12124;SDS011;6126;57.908;16.490;2022-12-18T00:36:32;6.57;;;3.78;;
12124;SDS011;6126;57.908;16.490;2022-12-18T00:39:00;7.18;;;3.90;;
12124;SDS011;6126;57.908;16.490;2022-12-18T00:41:29;9.50;;;4.15;;
12124;SDS011;6126;57.908;16.490;2022-12-18T00:44:15;6.38;;;3.88;;
12124;SDS011;6126;57.908;16.490;2022-12-18T00:46:43;7.55;;;3.92;;
12124;SDS011;6126;57.908;16.490;2022-12-18T00:49:10;7.28;;;4.20;;
12124;SDS011;6126;57.908;16.490;2022-12-18T00:51:36;6.97;;;3.63;;
12124;SDS011;6126;57.908;16.490;2022-12-18T00:54:02;7.28;;;4.07;;
12124;SDS011;6126;57.908;16.490;2022-12-18T00:56:28;6.55;;;4.03;;
12124;SDS011;6126;57.908;16.490;2022-12-18T00:58:54;7.30;;;4.38;;
12124;SDS011;6126;57.908;16.490;2022-12-18T01:01:20;5.82;;;3.88;;
12124;SDS011;6126;57.908;16.490;2022-12-18T01:03:46;5.90;;;3.97;;
12124;SDS011;6126;57.908;16.490;2022-12-18T01:06:13;5.38;;;3.75;;
12124;SDS011;6126;57.908;16.490;2022-12-18T01:08:40;8.52;;;4.45;;
12124;SDS011;6126;57.908;16.490;2022-12-18T01:11:07;4.97;;;4.03;;
12124;SDS011;6126;57.908;16.490;2022-12-18T01:13:39;5.53;;;3.42;;
12124;SDS011;6126;57.908;16.490;2022-12-18T01:16:05;6.93;;;4.13;;
12124;SDS011;6126;57.908;16.490;2022-12-18T01:18:33;4.03;;;3.40;;
12124;SDS011;6126;57.908;16.490;2022-12-18T01:21:00;5.07;;;3.42;;
12124;SDS011;6126;57.908;16.490;2022-12-18T01:23:31;5.55;;;3.80;;
12124;SDS011;6126;57.908;16.490;2022-12-18T01:25:57;5.63;;;3.60;;
12124;SDS011;6126;57.908;16.490;2022-12-18T01:28:23;7.47;;;3.53;;
12124;SDS011;6126;57.908;16.490;2022-12-18T01:30:48;6.45;;;4.32;;
12124;SDS011;6126;57.908;16.490;2022-12-18T01:33:14;6.93;;;3.45;;
12124;SDS011;6126;57.908;16.490;2022-12-18T01:35:41;7.68;;;3.83;;
12124;SDS011;6126;57.908;16.490;2022-12-18T01:38:08;6.45;;;3.53;;
12124;SDS011;6126;57.908;16.490;2022-12-18T01:40:34;4.95;;;3.78;;
12124;SDS011;6126;57.908;16.490;2022-12-18T01:43:00;6.10;;;4.30;;
12124;SDS011;6126;57.908;16.490;2022-12-18T01:45:29;5.93;;;3.47;;
12124;SDS011;6126;57.908;16.490;2022-12-18T01:48:04;5.13;;;3.75;;
12124;SDS011;6126;57.908;16.490;2022-12-18T01:50:35;5.60;;;3.42;;
12124;SDS011;6126;57.908;16.490;2022-12-18T01:53:15;8.15;;;3.53;;
12124;SDS011;6126;57.908;16.490;2022-12-18T01:55:48;4.07;;;3.17;;
12124;SDS011;6126;57.908;16.490;2022-12-18T01:58:19;7.45;;;3.50;;
12124;SDS011;6126;57.908;16.490;2022-12-18T02:01:04;5.40;;;3.05;;
12124;SDS011;6126;57.908;16.490;2022-12-18T02:03:30;7.60;;;3.38;;
12124;SDS011;6126;57.908;16.490;2022-12-18T02:06:01;6.35;;;3.50;;
12124;SDS011;6126;57.908;16.490;2022-12-18T02:12:13;5.45;;;3.33;;
12124;SDS011;6126;57.908;16.490;2022-12-18T02:14:49;7.38;;;4.03;;
12124;SDS011;6126;57.908;16.490;2022-12-18T02:17:35;7.25;;;3.50;;
12124;SDS011;6126;57.908;16.490;2022-12-18T02:23:19;6.40;;;3.33;;
12124;SDS011;6126;57.908;16.490;2022-12-18T02:28:59;4.70;;;3.45;;
12124;SDS011;6126;57.908;16.490;2022-12-18T02:31:52;5.43;;;3.00;;
12124;SDS011;6126;57.908;16.490;2022-12-18T02:34:23;8.68;;;3.38;;
12124;SDS011;6126;57.908;16.490;2022-12-18T02:36:56;5.68;;;3.28;;
12124;SDS011;6126;57.908;16.490;2022-12-18T02:39:27;9.80;;;3.45;;
12124;SDS011;6126;57.908;16.490;2022-12-18T02:41:58;6.38;;;3.22;;
12124;SDS011;6126;57.908;16.490;2022-12-18T02:44:27;6.10;;;3.35;;
12124;SDS011;6126;57.908;16.490;2022-12-18T02:46:53;4.88;;;3.25;;
12124;SDS011;6126;57.908;16.490;2022-12-18T02:57:58;5.75;;;3.45;;
12124;SDS011;6126;57.908;16.490;2022-12-18T03:03:29;7.15;;;3.28;;
12124;SDS011;6126;57.908;16.490;2022-12-18T03:06:11;4.13;;;2.80;;
12124;SDS011;6126;57.908;16.490;2022-12-18T03:08:49;5.90;;;3.33;;
12124;SDS011;6126;57.908;16.490;2022-12-18T03:11:23;4.43;;;3.30;;
12124;SDS011;6126;57.908;16.490;2022-12-18T03:14:12;5.45;;;3.63;;
12124;SDS011;6126;57.908;16.490;2022-12-18T03:16:42;4.68;;;3.00;;
12124;SDS011;6126;57.908;16.490;2022-12-18T03:19:16;6.32;;;3.50;;
12124;SDS011;6126;57.908;16.490;2022-12-18T03:21:49;5.93;;;3.65;;
12124;SDS011;6126;57.908;16.490;2022-12-18T03:24:22;9.35;;;3.35;;
12124;SDS011;6126;57.908;16.490;2022-12-18T03:26:54;6.28;;;3.28;;
12124;SDS011;6126;57.908;16.490;2022-12-18T03:29:31;6.20;;;2.90;;
12124;SDS011;6126;57.908;16.490;2022-12-18T03:32:11;5.88;;;3.33;;
12124;SDS011;6126;57.908;16.490;2022-12-18T03:34:48;4.72;;;3.03;;
12124;SDS011;6126;57.908;16.490;2022-12-18T03:37:19;5.22;;;3.20;;
12124;SDS011;6126;57.908;16.490;2022-12-18T03:39:45;5.32;;;3.40;;
12124;SDS011;6126;57.908;16.490;2022-12-18T03:42:15;5.90;;;3.35;;
12124;SDS011;6126;57.908;16.490;2022-12-18T03:47:27;7.80;;;3.63;;
12124;SDS011;6126;57.908;16.490;2022-12-18T03:50:48;5.10;;;2.92;;
12124;SDS011;6126;57.908;16.490;2022-12-18T03:56:31;7.00;;;3.75;;
12124;SDS011;6126;57.908;16.490;2022-12-18T03:59:02;5.53;;;3.25;;
12124;SDS011;6126;57.908;16.490;2022-12-18T04:01:35;8.18;;;3.08;;
12124;SDS011;6126;57.908;16.490;2022-12-18T04:04:06;9.60;;;4.25;;
12124;SDS011;6126;57.908;16.490;2022-12-18T04:06:36;6.22;;;3.47;;
12124;SDS011;6126;57.908;16.490;2022-12-18T04:09:03;10.13;;;3.70;;
12124;SDS011;6126;57.908;16.490;2022-12-18T04:11:30;4.82;;;3.53;;
12124;SDS011;6126;57.908;16.490;2022-12-18T04:13:57;5.40;;;3.40;;
12124;SDS011;6126;57.908;16.490;2022-12-18T04:16:26;8.05;;;3.85;;
12124;SDS011;6126;57.908;16.490;2022-12-18T04:18:53;6.68;;;3.75;;
12124;SDS011;6126;57.908;16.490;2022-12-18T04:21:19;5.22;;;3.53;;
12124;SDS011;6126;57.908;16.490;2022-12-18T04:23:45;3.50;;;3.10;;
12124;SDS011;6126;57.908;16.490;2022-12-18T04:26:11;4.20;;;3.13;;
12124;SDS011;6126;57.908;16.490;2022-12-18T04:28:37;6.63;;;3.47;;
12124;SDS011;6126;57.908;16.490;2022-12-18T04:31:03;6.03;;;3.83;;
12124;SDS011;6126;57.908;16.490;2022-12-18T04:33:29;6.93;;;3.88;;
12124;SDS011;6126;57.908;16.490;2022-12-18T04:35:55;6.20;;;3.15;;
12124;SDS011;6126;57.908;16.490;2022-12-18T04:38:21;6.82;;;3.53;;
12124;SDS011;6126;57.908;16.490;2022-12-18T04:40:47;4.63;;;3.05;;
12124;SDS011;6126;57.908;16.490;2022-12-18T04:43:13;5.97;;;4.30;;
12124;SDS011;6126;57.908;16.490;2022-12-18T04:45:39;6.00;;;3.83;;
12124;SDS011;6126;57.908;16.490;2022-12-18T04:48:05;8.93;;;3.45;;
12124;SDS011;6126;57.908;16.490;2022-12-18T04:50:31;6.93;;;4.05;;
12124;SDS011;6126;57.908;16.490;2022-12-18T04:52:57;6.25;;;3.88;;
12124;SDS011;6126;57.908;16.490;2022-12-18T04:55:25;6.75;;;3.47;;
12124;SDS011;6126;57.908;16.490;2022-12-18T04:57:52;6.88;;;3.63;;
12124;SDS011;6126;57.908;16.490;2022-12-18T05:00:18;8.30;;;4.43;;
12124;SDS011;6126;57.908;16.490;2022-12-18T05:02:44;9.10;;;4.20;;
12124;SDS011;6126;57.908;16.490;2022-12-18T05:05:10;8.70;;;4.30;;
12124;SDS011;6126;57.908;16.490;2022-12-18T05:07:36;7.63;;;4.20;;
12124;SDS011;6126;57.908;16.490;2022-12-18T05:10:02;5.55;;;3.50;;
12124;SDS011;6126;57.908;16.490;2022-12-18T05:12:32;5.72;;;3.30;;
12124;SDS011;6126;57.908;16.490;2022-12-18T05:14:58;10.32;;;3.45;;
12124;SDS011;6126;57.908;16.490;2022-12-18T05:17:24;5.65;;;3.42;;
12124;SDS011;6126;57.908;16.490;2022-12-18T05:19:49;5.95;;;3.47;;
12124;SDS011;6126;57.908;16.490;2022-12-18T05:22:15;7.80;;;4.40;;
12124;SDS011;6126;57.908;16.490;2022-12-18T05:24:41;5.22;;;3.60;;
12124;SDS011;6126;57.908;16.490;2022-12-18T05:27:07;5.40;;;3.30;;
12124;SDS011;6126;57.908;16.490;2022-12-18T05:29:33;7.40;;;3.92;;
12124;SDS011;6126;57.908;16.490;2022-12-18T05:31:59;7.22;;;3.88;;
12124;SDS011;6126;57.908;16.490;2022-12-18T05:34:25;7.03;;;4.10;;
12124;SDS011;6126;57.908;16.490;2022-12-18T05:36:50;7.32;;;3.85;;
12124;SDS011;6126;57.908;16.490;2022-12-18T05:39:16;7.57;;;3.72;;
12124;SDS011;6126;57.908;16.490;2022-12-18T05:41:42;4.45;;;3.20;;
12124;SDS011;6126;57.908;16.490;2022-12-18T05:44:08;8.25;;;4.03;;
12124;SDS011;6126;57.908;16.490;2022-12-18T05:46:34;11.90;;;4.20;;
12124;SDS011;6126;57.908;16.490;2022-12-18T05:49:01;5.53;;;3.88;;
12124;SDS011;6126;57.908;16.490;2022-12-18T05:51:27;9.45;;;4.20;;
12124;SDS011;6126;57.908;16.490;2022-12-18T05:53:53;8.68;;;4.35;;
12124;SDS011;6126;57.908;16.490;2022-12-18T05:56:20;5.22;;;3.35;;
12124;SDS011;6126;57.908;16.490;2022-12-18T05:58:50;7.03;;;3.33;;
12124;SDS011;6126;57.908;16.490;2022-12-18T06:01:20;9.30;;;3.95;;
12124;SDS011;6126;57.908;16.490;2022-12-18T06:03:49;4.63;;;3.15;;
12124;SDS011;6126;57.908;16.490;2022-12-18T06:06:22;6.18;;;3.53;;
12124;SDS011;6126;57.908;16.490;2022-12-18T06:08:51;5.43;;;3.38;;
12124;SDS011;6126;57.908;16.490;2022-12-18T06:11:18;6.15;;;3.90;;
12124;SDS011;6126;57.908;16.490;2022-12-18T06:13:49;6.28;;;3.55;;
12124;SDS011;6126;57.908;16.490;2022-12-18T06:16:17;6.60;;;4.03;;
12124;SDS011;6126;57.908;16.490;2022-12-18T06:18:43;4.15;;;3.17;;
12124;SDS011;6126;57.908;16.490;2022-12-18T06:21:09;4.85;;;3.08;;
12124;SDS011;6126;57.908;16.490;2022-12-18T06:23:35;7.00;;;3.72;;
12124;SDS011;6126;57.908;16.490;2022-12-18T06:26:06;7.85;;;3.50;;
12124;SDS011;6126;57.908;16.490;2022-12-18T06:28:34;4.78;;;3.38;;
12124;SDS011;6126;57.908;16.490;2022-12-18T06:31:00;6.10;;;4.30;;
12124;SDS011;6126;57.908;16.490;2022-12-18T06:33:28;5.30;;;3.38;;
12124;SDS011;6126;57.908;16.490;2022-12-18T06:35:58;7.03;;;3.55;;
12124;SDS011;6126;57.908;16.490;2022-12-18T06:38:39;7.78;;;3.67;;
12124;SDS011;6126;57.908;16.490;2022-12-18T06:41:12;5.03;;;3.60;;
12124;SDS011;6126;57.908;16.490;2022-12-18T06:43:44;6.80;;;3.50;;
12124;SDS011;6126;57.908;16.490;2022-12-18T06:46:10;6.70;;;4.25;;
12124;SDS011;6126;57.908;16.490;2022-12-18T06:48:37;5.85;;;3.45;;
12124;SDS011;6126;57.908;16.490;2022-12-18T06:51:03;6.43;;;3.13;;
12124;SDS011;6126;57.908;16.490;2022-12-18T06:53:31;5.35;;;3.90;;
12124;SDS011;6126;57.908;16.490;2022-12-18T06:56:04;5.35;;;3.88;;
12124;SDS011;6126;57.908;16.490;2022-12-18T06:58:32;6.82;;;3.80;;
12124;SDS011;6126;57.908;16.490;2022-12-18T07:00:59;5.53;;;3.85;;
12124;SDS011;6126;57.908;16.490;2022-12-18T07:03:26;5.32;;;3.63;;
12124;SDS011;6126;57.908;16.490;2022-12-18T07:05:53;4.78;;;3.50;;
12124;SDS011;6126;57.908;16.490;2022-12-18T07:08:19;5.82;;;3.60;;
12124;SDS011;6126;57.908;16.490;2022-12-18T07:10:44;5.32;;;3.22;;
12124;SDS011;6126;57.908;16.490;2022-12-18T07:13:10;5.15;;;3.33;;
12124;SDS011;6126;57.908;16.490;2022-12-18T07:15:36;5.68;;;3.05;;
12124;SDS011;6126;57.908;16.490;2022-12-18T07:18:02;7.20;;;3.17;;
12124;SDS011;6126;57.908;16.490;2022-12-18T07:20:28;5.50;;;3.80;;
12124;SDS011;6126;57.908;16.490;2022-12-18T07:22:54;5.93;;;3.10;;
12124;SDS011;6126;57.908;16.490;2022-12-18T07:25:20;6.47;;;3.85;;
12124;SDS011;6126;57.908;16.490;2022-12-18T07:27:46;5.93;;;3.28;;
12124;SDS011;6126;57.908;16.490;2022-12-18T07:30:12;4.95;;;3.55;;
12124;SDS011;6126;57.908;16.490;2022-12-18T07:32:38;5.63;;;4.00;;
12124;SDS011;6126;57.908;16.490;2022-12-18T07:35:04;4.78;;;3.33;;
12124;SDS011;6126;57.908;16.490;2022-12-18T07:37:30;4.57;;;3.08;;
12124;SDS011;6126;57.908;16.490;2022-12-18T07:39:56;4.30;;;3.25;;
12124;SDS011;6126;57.908;16.490;2022-12-18T07:42:22;5.40;;;3.05;;
12124;SDS011;6126;57.908;16.490;2022-12-18T07:45:00;5.95;;;3.60;;
12124;SDS011;6126;57.908;16.490;2022-12-18T07:47:27;4.53;;;2.92;;
12124;SDS011;6126;57.908;16.490;2022-12-18T07:49:57;4.68;;;3.40;;
12124;SDS011;6126;57.908;16.490;2022-12-18T07:52:23;6.40;;;3.05;;
12124;SDS011;6126;57.908;16.490;2022-12-18T07:54:49;5.05;;;2.90;;
12124;SDS011;6126;57.908;16.490;2022-12-18T07:57:16;4.65;;;3.30;;
12124;SDS011;6126;57.908;16.490;2022-12-18T07:59:42;5.47;;;2.97;;
12124;SDS011;6126;57.908;16.490;2022-12-18T08:02:08;5.82;;;3.22;;
12124;SDS011;6126;57.908;16.490;2022-12-18T08:04:34;4.93;;;2.58;;
12124;SDS011;6126;57.908;16.490;2022-12-18T08:07:00;4.50;;;2.58;;
12124;SDS011;6126;57.908;16.490;2022-12-18T08:09:26;6.03;;;2.78;;
12124;SDS011;6126;57.908;16.490;2022-12-18T08:11:52;3.67;;;2.85;;
12124;SDS011;6126;57.908;16.490;2022-12-18T08:14:18;4.20;;;3.00;;
12124;SDS011;6126;57.908;16.490;2022-12-18T08:16:44;6.47;;;2.55;;
12124;SDS011;6126;57.908;16.490;2022-12-18T08:19:10;3.45;;;2.80;;
12124;SDS011;6126;57.908;16.490;2022-12-18T08:21:35;3.63;;;2.83;;
12124;SDS011;6126;57.908;16.490;2022-12-18T08:24:02;4.63;;;3.20;;
12124;SDS011;6126;57.908;16.490;2022-12-18T08:26:29;4.07;;;3.10;;
12124;SDS011;6126;57.908;16.490;2022-12-18T08:28:57;2.95;;;2.38;;
12124;SDS011;6126;57.908;16.490;2022-12-18T08:31:24;3.97;;;2.63;;
12124;SDS011;6126;57.908;16.490;2022-12-18T08:33:52;3.88;;;2.53;;
12124;SDS011;6126;57.908;16.490;2022-12-18T08:36:19;3.33;;;2.42;;
12124;SDS011;6126;57.908;16.490;2022-12-18T08:38:46;5.25;;;3.30;;
12124;SDS011;6126;57.908;16.490;2022-12-18T08:41:12;4.93;;;3.15;;
12124;SDS011;6126;57.908;16.490;2022-12-18T08:43:41;3.22;;;2.55;;
12124;SDS011;6126;57.908;16.490;2022-12-18T08:46:26;3.65;;;2.55;;
12124;SDS011;6126;57.908;16.490;2022-12-18T08:48:58;3.47;;;2.80;;
12124;SDS011;6126;57.908;16.490;2022-12-18T08:51:24;5.03;;;2.88;;
12124;SDS011;6126;57.908;16.490;2022-12-18T08:53:50;4.28;;;2.90;;
12124;SDS011;6126;57.908;16.490;2022-12-18T08:56:16;3.45;;;2.33;;
12124;SDS011;6126;57.908;16.490;2022-12-18T08:58:42;2.58;;;2.17;;
12124;SDS011;6126;57.908;16.490;2022-12-18T09:01:09;4.22;;;2.83;;
12124;SDS011;6126;57.908;16.490;2022-12-18T09:03:37;2.72;;;2.47;;
12124;SDS011;6126;57.908;16.490;2022-12-18T09:06:04;3.33;;;2.63;;
12124;SDS011;6126;57.908;16.490;2022-12-18T09:08:30;4.82;;;2.83;;
12124;SDS011;6126;57.908;16.490;2022-12-18T09:10:59;4.03;;;2.28;;
12124;SDS011;6126;57.908;16.490;2022-12-18T09:13:25;5.03;;;3.10;;
12124;SDS011;6126;57.908;16.490;2022-12-18T09:15:52;6.63;;;2.60;;
12124;SDS011;6126;57.908;16.490;2022-12-18T09:18:21;5.85;;;2.60;;
12124;SDS011;6126;57.908;16.490;2022-12-18T09:20:49;4.15;;;2.83;;
12124;SDS011;6126;57.908;16.490;2022-12-18T09:23:17;3.35;;;2.50;;
12124;SDS011;6126;57.908;16.490;2022-12-18T09:25:43;4.53;;;3.15;;
12124;SDS011;6126;57.908;16.490;2022-12-18T09:28:10;5.65;;;2.67;;
12124;SDS011;6126;57.908;16.490;2022-12-18T09:30:44;3.20;;;2.58;;
12124;SDS011;6126;57.908;16.490;2022-12-18T09:33:13;4.25;;;2.45;;
12124;SDS011;6126;57.908;16.490;2022-12-18T09:35:41;4.15;;;2.92;;
12124;SDS011;6126;57.908;16.490;2022-12-18T09:38:11;3.65;;;2.40;;
12124;SDS011;6126;57.908;16.490;2022-12-18T09:40:43;2.47;;;2.28;;
12124;SDS011;6126;57.908;16.490;2022-12-18T09:43:18;2.40;;;2.15;;
12124;SDS011;6126;57.908;16.490;2022-12-18T09:45:59;5.20;;;2.78;;
12124;SDS011;6126;57.908;16.490;2022-12-18T09:48:31;5.93;;;2.65;;
12124;SDS011;6126;57.908;16.490;2022-12-18T09:51:04;6.85;;;2.85;;
12124;SDS011;6126;57.908;16.490;2022-12-18T09:53:56;3.30;;;2.55;;
12124;SDS011;6126;57.908;16.490;2022-12-18T09:56:29;3.72;;;2.85;;
12124;SDS011;6126;57.908;16.490;2022-12-18T09:59:03;3.40;;;2.60;;
12124;SDS011;6126;57.908;16.490;2022-12-18T10:01:31;2.88;;;2.53;;
12124;SDS011;6126;57.908;16.490;2022-12-18T10:03:57;4.35;;;2.50;;
12124;SDS011;6126;57.908;16.490;2022-12-18T10:09:30;3.53;;;2.50;;
12124;SDS011;6126;57.908;16.490;2022-12-18T10:20:46;3.00;;;2.50;;
12124;SDS011;6126;57.908;16.490;2022-12-18T10:26:06;4.57;;;2.22;;
12124;SDS011;6126;57.908;16.490;2022-12-18T10:28:36;3.80;;;2.67;;
12124;SDS011;6126;57.908;16.490;2022-12-18T10:31:10;3.42;;;2.60;;
12124;SDS011;6126;57.908;16.490;2022-12-18T10:33:43;3.65;;;2.30;;
12124;SDS011;6126;57.908;16.490;2022-12-18T10:36:10;3.53;;;2.30;;
12124;SDS011;6126;57.908;16.490;2022-12-18T10:38:37;3.85;;;2.33;;
12124;SDS011;6126;57.908;16.490;2022-12-18T10:41:04;5.82;;;2.33;;
12124;SDS011;6126;57.908;16.490;2022-12-18T10:43:43;4.78;;;2.20;;
12124;SDS011;6126;57.908;16.490;2022-12-18T10:48:36;4.70;;;2.70;;
12124;SDS011;6126;57.908;16.490;2022-12-18T10:51:27;3.08;;;2.38;;
12124;SDS011;6126;57.908;16.490;2022-12-18T10:54:04;5.03;;;2.70;;
12124;SDS011;6126;57.908;16.490;2022-12-18T10:56:40;2.53;;;1.80;;
12124;SDS011;6126;57.908;16.490;2022-12-18T10:59:08;2.65;;;2.08;;
12124;SDS011;6126;57.908;16.490;2022-12-18T11:01:51;3.70;;;1.98;;
12124;SDS011;6126;57.908;16.490;2022-12-18T11:06:52;4.85;;;2.05;;
12124;SDS011;6126;57.908;16.490;2022-12-18T11:09:30;2.63;;;1.95;;
12124;SDS011;6126;57.908;16.490;2022-12-18T11:12:02;1.92;;;1.73;;
12124;SDS011;6126;57.908;16.490;2022-12-18T11:20:04;3.67;;;2.20;;
12124;SDS011;6126;57.908;16.490;2022-12-18T11:22:57;2.10;;;1.90;;
12124;SDS011;6126;57.908;16.490;2022-12-18T11:25:28;2.92;;;1.90;;
12124;SDS011;6126;57.908;16.490;2022-12-18T11:28:00;2.58;;;2.03;;
12124;SDS011;6126;57.908;16.490;2022-12-18T11:30:47;3.05;;;2.05;;
12124;SDS011;6126;57.908;16.490;2022-12-18T11:33:15;3.03;;;2.03;;
12124;SDS011;6126;57.908;16.490;2022-12-18T11:35:48;4.45;;;2.13;;
12124;SDS011;6126;57.908;16.490;2022-12-18T11:41:02;2.47;;;2.17;;
12124;SDS011;6126;57.908;16.490;2022-12-18T11:43:59;2.17;;;1.88;;
12124;SDS011;6126;57.908;16.490;2022-12-18T11:49:07;2.45;;;2.00;;
12124;SDS011;6126;57.908;16.490;2022-12-18T11:51:50;3.45;;;2.40;;
12124;SDS011;6126;57.908;16.490;2022-12-18T11:54:41;3.38;;;1.80;;
12124;SDS011;6126;57.908;16.490;2022-12-18T11:57:15;5.25;;;2.33;;
12124;SDS011;6126;57.908;16.490;2022-12-18T12:02:48;2.92;;;2.45;;
12124;SDS011;6126;57.908;16.490;2022-12-18T12:14:51;3.00;;;2.15;;
12124;SDS011;6126;57.908;16.490;2022-12-18T12:23:04;4.75;;;2.90;;
12124;SDS011;6126;57.908;16.490;2022-12-18T12:26:01;4.50;;;2.40;;
12124;SDS011;6126;57.908;16.490;2022-12-18T12:34:30;3.30;;;2.58;;
12124;SDS011;6126;57.908;16.490;2022-12-18T12:40:30;5.50;;;2.42;;
12124;SDS011;6126;57.908;16.490;2022-12-18T12:43:12;3.45;;;2.72;;
12124;SDS011;6126;57.908;16.490;2022-12-18T12:46:07;4.13;;;2.38;;
12124;SDS011;6126;57.908;16.490;2022-12-18T12:48:46;4.47;;;3.22;;
12124;SDS011;6126;57.908;16.490;2022-12-18T12:51:35;5.32;;;2.78;;
12124;SDS011;6126;57.908;16.490;2022-12-18T12:54:06;4.10;;;2.95;;
12124;SDS011;6126;57.908;16.490;2022-12-18T12:56:44;3.25;;;2.85;;
12124;SDS011;6126;57.908;16.490;2022-12-18T12:59:57;3.75;;;2.33;;
12124;SDS011;6126;57.908;16.490;2022-12-18T13:03:03;4.82;;;3.28;;
12124;SDS011;6126;57.908;16.490;2022-12-18T13:05:56;2.92;;;2.60;;
12124;SDS011;6126;57.908;16.490;2022-12-18T13:08:50;5.72;;;3.15;;
12124;SDS011;6126;57.908;16.490;2022-12-18T13:11:32;4.40;;;2.95;;
12124;SDS011;6126;57.908;16.490;2022-12-18T13:14:24;4.20;;;2.83;;
12124;SDS011;6126;57.908;16.490;2022-12-18T13:20:08;4.55;;;3.30;;
12124;SDS011;6126;57.908;16.490;2022-12-18T13:25:27;3.47;;;2.90;;
12124;SDS011;6126;57.908;16.490;2022-12-18T13:27:57;7.70;;;3.10;;
12124;SDS011;6126;57.908;16.490;2022-12-18T13:40:56;3.65;;;2.67;;
12124;SDS011;6126;57.908;16.490;2022-12-18T13:43:24;2.90;;;2.58;;
12124;SDS011;6126;57.908;16.490;2022-12-18T13:46:20;3.60;;;2.47;;
12124;SDS011;6126;57.908;16.490;2022-12-18T13:49:00;3.45;;;2.65;;
12124;SDS011;6126;57.908;16.490;2022-12-18T13:51:32;3.63;;;2.90;;
12124;SDS011;6126;57.908;16.490;2022-12-18T13:54:00;4.88;;;2.78;;
12124;SDS011;6126;57.908;16.490;2022-12-18T13:56:56;3.95;;;2.55;;
12124;SDS011;6126;57.908;16.490;2022-12-18T13:59:23;4.18;;;2.45;;
12124;SDS011;6126;57.908;16.490;2022-12-18T14:01:59;2.85;;;2.53;;
12124;SDS011;6126;57.908;16.490;2022-12-18T14:04:35;3.22;;;2.85;;
12124;SDS011;6126;57.908;16.490;2022-12-18T14:09:30;5.57;;;2.80;;
12124;SDS011;6126;57.908;16.490;2022-12-18T14:12:02;4.32;;;3.08;;
12124;SDS011;6126;57.908;16.490;2022-12-18T14:14:47;5.35;;;2.80;;
12124;SDS011;6126;57.908;16.490;2022-12-18T14:17:16;5.20;;;2.78;;
12124;SDS011;6126;57.908;16.490;2022-12-18T14:19:47;4.53;;;2.60;;
12124;SDS011;6126;57.908;16.490;2022-12-18T14:22:23;6.00;;;3.25;;
12124;SDS011;6126;57.908;16.490;2022-12-18T14:30:35;4.45;;;2.63;;
12124;SDS011;6126;57.908;16.490;2022-12-18T14:35:42;5.05;;;2.72;;
12124;SDS011;6126;57.908;16.490;2022-12-18T14:38:24;3.58;;;2.78;;
12124;SDS011;6126;57.908;16.490;2022-12-18T14:43:43;4.60;;;2.95;;
12124;SDS011;6126;57.908;16.490;2022-12-18T14:51:55;3.53;;;2.50;;
12124;SDS011;6126;57.908;16.490;2022-12-18T14:54:28;6.32;;;3.05;;
12124;SDS011;6126;57.908;16.490;2022-12-18T14:57:00;3.90;;;2.75;;
12124;SDS011;6126;57.908;16.490;2022-12-18T14:59:31;3.38;;;2.33;;
12124;SDS011;6126;57.908;16.490;2022-12-18T15:01:59;4.30;;;2.53;;
12124;SDS011;6126;57.908;16.490;2022-12-18T15:04:41;7.47;;;2.88;;
12124;SDS011;6126;57.908;16.490;2022-12-18T15:10:01;6.22;;;3.20;;
12124;SDS011;6126;57.908;16.490;2022-12-18T15:12:47;3.88;;;3.03;;
12124;SDS011;6126;57.908;16.490;2022-12-18T15:20:42;3.72;;;2.40;;
12124;SDS011;6126;57.908;16.490;2022-12-18T15:26:04;6.07;;;3.05;;
12124;SDS011;6126;57.908;16.490;2022-12-18T15:31:32;4.05;;;2.80;;
12124;SDS011;6126;57.908;16.490;2022-12-18T15:34:13;5.65;;;3.15;;
12124;SDS011;6126;57.908;16.490;2022-12-18T15:36:45;4.88;;;3.30;;
12124;SDS011;6126;57.908;16.490;2022-12-18T15:39:13;4.13;;;3.05;;
12124;SDS011;6126;57.908;16.490;2022-12-18T15:41:39;5.60;;;2.90;;
12124;SDS011;6126;57.908;16.490;2022-12-18T15:44:25;4.95;;;2.97;;
12124;SDS011;6126;57.908;16.490;2022-12-18T15:46:52;3.92;;;2.97;;
12124;SDS011;6126;57.908;16.490;2022-12-18T15:49:18;6.50;;;3.55;;
12124;SDS011;6126;57.908;16.490;2022-12-18T15:51:43;3.80;;;2.75;;
12124;SDS011;6126;57.908;16.490;2022-12-18T15:54:14;4.78;;;2.83;;
12124;SDS011;6126;57.908;16.490;2022-12-18T15:57:03;6.57;;;3.80;;
12124;SDS011;6126;57.908;16.490;2022-12-18T15:59:48;6.15;;;2.92;;
12124;SDS011;6126;57.908;16.490;2022-12-18T16:02:18;4.03;;;3.20;;
12124;SDS011;6126;57.908;16.490;2022-12-18T16:04:45;5.43;;;3.30;;
12124;SDS011;6126;57.908;16.490;2022-12-18T16:07:11;6.55;;;3.25;;
12124;SDS011;6126;57.908;16.490;2022-12-18T16:09:38;5.85;;;3.13;;
12124;SDS011;6126;57.908;16.490;2022-12-18T16:12:04;4.45;;;3.30;;
12124;SDS011;6126;57.908;16.490;2022-12-18T16:14:36;5.00;;;3.28;;
12124;SDS011;6126;57.908;16.490;2022-12-18T16:17:03;5.28;;;3.05;;
12124;SDS011;6126;57.908;16.490;2022-12-18T16:19:35;4.20;;;3.20;;
12124;SDS011;6126;57.908;16.490;2022-12-18T16:22:00;6.53;;;3.67;;
12124;SDS011;6126;57.908;16.490;2022-12-18T16:24:27;5.65;;;3.35;;
12124;SDS011;6126;57.908;16.490;2022-12-18T16:26:56;4.60;;;3.03;;
12124;SDS011;6126;57.908;16.490;2022-12-18T16:29:24;5.13;;;3.20;;
12124;SDS011;6126;57.908;16.490;2022-12-18T16:31:53;8.30;;;3.17;;
12124;SDS011;6126;57.908;16.490;2022-12-18T16:34:27;6.05;;;3.10;;
12124;SDS011;6126;57.908;16.490;2022-12-18T16:36:58;6.88;;;2.72;;
12124;SDS011;6126;57.908;16.490;2022-12-18T16:39:30;4.47;;;2.50;;
12124;SDS011;6126;57.908;16.490;2022-12-18T16:42:00;4.45;;;2.88;;
12124;SDS011;6126;57.908;16.490;2022-12-18T16:44:28;3.45;;;2.70;;
12124;SDS011;6126;57.908;16.490;2022-12-18T16:46:54;3.83;;;2.72;;
12124;SDS011;6126;57.908;16.490;2022-12-18T16:49:20;3.83;;;2.70;;
12124;SDS011;6126;57.908;16.490;2022-12-18T16:51:46;3.97;;;2.55;;
12124;SDS011;6126;57.908;16.490;2022-12-18T16:54:12;4.35;;;2.63;;
12124;SDS011;6126;57.908;16.490;2022-12-18T16:56:38;6.15;;;2.72;;
12124;SDS011;6126;57.908;16.490;2022-12-18T16:59:06;4.10;;;2.45;;
12124;SDS011;6126;57.908;16.490;2022-12-18T17:01:35;4.85;;;2.90;;
12124;SDS011;6126;57.908;16.490;2022-12-18T17:04:02;4.88;;;2.88;;
12124;SDS011;6126;57.908;16.490;2022-12-18T17:06:31;6.03;;;3.08;;
12124;SDS011;6126;57.908;16.490;2022-12-18T17:09:01;6.15;;;3.17;;
12124;SDS011;6126;57.908;16.490;2022-12-18T17:11:31;4.30;;;2.95;;
12124;SDS011;6126;57.908;16.490;2022-12-18T17:13:59;5.68;;;3.38;;
12124;SDS011;6126;57.908;16.490;2022-12-18T17:16:45;6.07;;;3.03;;
12124;SDS011;6126;57.908;16.490;2022-12-18T17:19:12;3.90;;;2.80;;
12124;SDS011;6126;57.908;16.490;2022-12-18T17:21:39;4.35;;;2.90;;
12124;SDS011;6126;57.908;16.490;2022-12-18T17:24:05;5.53;;;3.20;;
12124;SDS011;6126;57.908;16.490;2022-12-18T17:26:31;7.63;;;3.47;;